Time;durP1;ratioP1;P1;durP2;ratioP2;P2;SDS_P1;SDS_P2;PMS_P1;PMS_P2;Temp;Humidity;BMP_temperature;BMP_pressure;BME280_temperature;BME280_humidity;BME280_pressure;Samples;Min_cycle;Max_cycle;Signal;HPM_P1;HPM_P2
2022/07/13 00:01:49;;;;;;;4.33;3.00;;;;;;;16.60;64.75;95318.72;5072716;28;20456;-87
2022/07/13 00:04:16;;;;;;;2.70;2.50;;;;;;;16.59;64.60;95317.88;5073114;28;20481;-90
2022/07/13 00:06:43;;;;;;;3.17;2.93;;;;;;;16.59;65.10;95320.53;5072862;28;20552;-91
2022/07/13 00:09:10;;;;;;;3.10;2.80;;;;;;;16.60;64.66;95316.88;5072424;28;20457;-88
2022/07/13 00:11:37;;;;;;;3.03;2.73;;;;;;;16.52;64.46;95316.00;5073012;28;20451;-88
2022/07/13 00:14:06;;;;;;;5.97;3.07;;;;;;;16.55;64.45;95321.84;5072602;28;20449;-88
2022/07/13 00:16:33;;;;;;;3.50;2.60;;;;;;;16.56;65.19;95323.50;5072673;28;20465;-89
2022/07/13 00:19:00;;;;;;;2.90;2.67;;;;;;;16.50;64.83;95318.00;5072727;28;20454;-86
2022/07/13 00:21:27;;;;;;;3.43;3.13;;;;;;;16.47;64.73;95319.09;5074940;28;20433;-91
2022/07/13 00:23:54;;;;;;;3.80;2.73;;;;;;;16.36;65.14;95312.25;5075924;28;20513;-87
2022/07/13 00:26:21;;;;;;;2.93;2.73;;;;;;;16.36;65.86;95319.38;5076241;28;21042;-86
2022/07/13 00:28:48;;;;;;;2.80;2.50;;;;;;;16.31;65.59;95322.50;5076256;28;20453;-88
2022/07/13 00:31:16;;;;;;;3.13;2.93;;;;;;;16.31;65.87;95317.19;5076302;28;20462;-88
2022/07/13 00:33:43;;;;;;;2.73;2.50;;;;;;;16.29;65.27;95316.53;5076272;28;20460;-88
2022/07/13 00:36:10;;;;;;;3.23;2.93;;;;;;;16.26;65.77;95316.00;5075666;28;20777;-88
2022/07/13 00:38:38;;;;;;;4.10;2.70;;;;;;;16.21;65.72;95307.69;5076175;28;20436;-88
2022/07/13 00:41:05;;;;;;;2.97;2.70;;;;;;;16.16;65.85;95316.06;5075694;28;20437;-87
2022/07/13 00:43:32;;;;;;;3.03;2.80;;;;;;;16.12;65.43;95309.41;5075941;28;20549;-89
2022/07/13 00:46:00;;;;;;;2.77;2.57;;;;;;;16.20;65.67;95317.44;5075435;28;20858;-87
2022/07/13 00:48:29;;;;;;;4.13;2.60;;;;;;;16.24;66.27;95323.25;5075576;28;20449;-89
2022/07/13 00:50:56;;;;;;;2.70;2.50;;;;;;;16.27;65.94;95318.50;5075638;28;20447;-88
2022/07/13 00:53:24;;;;;;;6.90;2.60;;;;;;;16.31;65.37;95319.84;5076729;28;20449;-89
2022/07/13 00:55:51;;;;;;;2.30;2.20;;;;;;;16.30;65.52;95322.66;5075578;28;20936;-88
2022/07/13 00:58:19;;;;;;;2.93;2.67;;;;;;;16.31;65.50;95319.00;5076230;28;20449;-90
2022/07/13 01:00:46;;;;;;;3.37;3.07;;;;;;;16.19;65.67;95318.44;5076147;28;20449;-88
2022/07/13 01:03:13;;;;;;;3.17;2.87;;;;;;;16.09;66.58;95315.03;5075518;28;20449;-87
2022/07/13 01:05:43;;;;;;;3.33;3.13;;;;;;;16.06;66.88;95313.53;5075413;28;20481;-88
2022/07/13 01:08:12;;;;;;;2.87;2.67;;;;;;;15.92;67.85;95314.06;5075388;28;20445;-85
2022/07/13 01:10:40;;;;;;;4.32;3.50;;;;;;;15.93;68.23;95320.19;5074699;28;20445;-89
2022/07/13 01:13:10;;;;;;;3.60;3.30;;;;;;;15.82;68.87;95308.00;5076317;28;20202;-88
2022/07/13 01:15:37;;;;;;;6.63;3.50;;;;;;;15.68;69.92;95305.91;5075367;28;20954;-88
2022/07/13 01:18:05;;;;;;;4.30;3.90;;;;;;;15.71;69.63;95317.03;5075863;28;20464;-86
2022/07/13 01:20:32;;;;;;;6.70;3.70;;;;;;;15.76;69.62;95314.75;5075238;28;20441;-87
2022/07/13 01:23:08;;;;;;;4.87;4.37;;;;;;;15.83;69.67;95314.97;5075040;28;20481;-88
2022/07/13 01:25:35;;;;;;;4.77;4.33;;;;;;;15.85;69.88;95312.16;5075264;28;20590;-87
2022/07/13 01:28:02;;;;;;;5.97;4.70;;;;;;;15.86;69.54;95316.47;5075194;28;20455;-88
2022/07/13 01:30:29;;;;;;;3.57;3.27;;;;;;;15.88;69.93;95315.34;5075485;28;20449;-88
2022/07/13 01:32:56;;;;;;;13.97;4.10;;;;;;;15.87;69.71;95316.31;5075041;28;20456;-88
2022/07/13 01:35:24;;;;;;;3.93;3.63;;;;;;;15.88;69.24;95306.56;5074912;28;20448;-88
2022/07/13 01:37:52;;;;;;;5.00;3.30;;;;;;;15.91;68.52;95316.88;5075045;28;20448;-86
2022/07/13 01:40:22;;;;;;;3.77;3.47;;;;;;;15.92;69.19;95313.25;5075043;28;20440;-89
2022/07/13 01:42:52;;;;;;;4.43;3.10;;;;;;;15.89;68.84;95303.75;5075158;28;20454;-89
2022/07/13 01:45:20;;;;;;;3.13;2.80;;;;;;;15.91;68.31;95308.94;5074897;28;20564;-89
2022/07/13 01:47:49;;;;;;;3.77;3.40;;;;;;;15.88;68.41;95302.09;5075212;28;20461;-88
2022/07/13 01:50:18;;;;;;;2.93;2.73;;;;;;;15.86;68.13;95303.25;5074441;28;20446;-89
2022/07/13 01:52:45;;;;;;;3.30;3.00;;;;;;;15.83;67.85;95300.91;5074500;28;20445;-89
2022/07/13 01:55:13;;;;;;;3.07;2.80;;;;;;;15.78;67.65;95293.44;5074659;28;20437;-88
2022/07/13 01:57:42;;;;;;;3.73;2.50;;;;;;;15.72;68.07;95297.50;5074613;28;20452;-91
2022/07/13 02:00:12;;;;;;;2.93;2.70;;;;;;;15.67;68.07;95305.06;5075298;28;20811;-88
2022/07/13 02:02:39;;;;;;;3.20;2.90;;;;;;;15.61;68.39;95302.19;5039856;28;20441;-90
2022/07/13 02:05:07;;;;;;;5.07;2.90;;;;;;;15.55;67.69;95298.28;5074070;28;21007;-89
2022/07/13 02:07:34;;;;;;;2.70;2.50;;;;;;;15.60;68.09;95306.63;5074433;28;20452;-91
2022/07/13 02:10:01;;;;;;;2.90;2.70;;;;;;;15.52;68.56;95297.78;5074166;28;20963;-88
2022/07/13 02:12:27;;;;;;;2.87;2.67;;;;;;;15.55;68.03;95308.03;5074110;28;20457;-89
2022/07/13 02:14:56;;;;;;;3.03;2.73;;;;;;;15.50;67.63;95311.16;5074258;28;20449;-88
2022/07/13 02:17:23;;;;;;;7.20;2.83;;;;;;;15.40;67.88;95300.63;5074181;28;20468;-90
2022/07/13 02:19:49;;;;;;;3.90;3.00;;;;;;;15.35;68.31;95304.72;5039057;28;20811;-89
2022/07/13 02:22:16;;;;;;;4.50;3.13;;;;;;;15.37;68.55;95313.34;5073640;28;20944;-88
2022/07/13 02:24:43;;;;;;;3.30;3.00;;;;;;;15.31;68.52;95304.16;5038319;28;20477;-88
2022/07/13 02:27:10;;;;;;;3.23;2.97;;;;;;;15.25;68.61;95304.75;5073948;28;20984;-87
2022/07/13 02:29:37;;;;;;;2.53;2.33;;;;;;;15.24;68.89;95302.25;5073932;28;20447;-89
2022/07/13 02:32:07;;;;;;;5.20;2.70;;;;;;;15.24;68.40;95305.75;5074081;28;20464;-88
2022/07/13 02:34:34;;;;;;;5.20;3.40;;;;;;;15.20;67.91;95304.38;5073691;28;20441;-88
2022/07/13 02:37:01;;;;;;;5.40;2.40;;;;;;;15.17;68.53;95302.03;5073960;28;20456;-87
2022/07/13 02:39:28;;;;;;;2.60;2.50;;;;;;;15.11;68.57;95305.28;5073628;28;20548;-88
2022/07/13 02:41:55;;;;;;;3.50;2.60;;;;;;;15.12;69.01;95299.84;5073496;28;20449;-89
2022/07/13 02:44:22;;;;;;;3.93;2.83;;;;;;;15.08;68.58;95297.63;5072776;28;20445;-87
2022/07/13 02:46:49;;;;;;;4.33;2.70;;;;;;;15.09;68.56;95304.59;5073547;28;20970;-88
2022/07/13 02:49:17;;;;;;;2.90;2.70;;;;;;;15.09;68.44;95305.41;5073228;28;20475;-88
2022/07/13 02:51:45;;;;;;;4.70;2.97;;;;;;;15.11;68.19;95305.28;5073836;28;20460;-88
2022/07/13 02:54:12;;;;;;;3.70;2.73;;;;;;;15.09;68.05;95301.94;5073469;28;20452;-88
2022/07/13 02:56:39;;;;;;;3.87;3.40;;;;;;;15.06;68.55;95289.84;5073440;28;20476;-88
2022/07/13 02:59:06;;;;;;;3.13;2.83;;;;;;;15.10;67.85;95307.09;5073272;28;20456;-86
2022/07/13 03:01:33;;;;;;;3.07;2.87;;;;;;;15.07;67.90;95306.56;5073395;28;20484;-86
2022/07/13 03:04:00;;;;;;;4.43;2.53;;;;;;;15.08;67.72;95305.56;5073068;28;20959;-88
2022/07/13 03:06:28;;;;;;;3.13;2.90;;;;;;;15.10;67.68;95303.59;5073030;28;20493;-90
2022/07/13 03:08:55;;;;;;;2.50;2.30;;;;;;;15.15;67.85;95294.25;5073798;28;20444;-87
2022/07/13 03:11:25;;;;;;;4.90;2.90;;;;;;;15.19;68.01;95310.66;5073543;28;20486;-87
2022/07/13 03:13:52;;;;;;;2.50;2.30;;;;;;;15.26;68.08;95305.59;5072930;28;20445;-87
2022/07/13 03:16:19;;;;;;;2.60;2.40;;;;;;;15.27;68.06;95305.44;5073476;28;20460;-88
2022/07/13 03:18:46;;;;;;;3.07;2.60;;;;;;;15.29;67.77;95306.13;5073400;28;20460;-86
2022/07/13 03:21:13;;;;;;;3.77;2.50;;;;;;;15.30;67.37;95299.84;5073476;28;20443;-88
2022/07/13 03:23:41;;;;;;;2.50;2.30;;;;;;;15.38;67.23;95299.13;5072995;28;20465;-90
2022/07/13 03:26:08;;;;;;;3.73;2.67;;;;;;;15.43;66.88;95299.50;5073211;28;20476;-89
2022/07/13 03:28:35;;;;;;;4.90;3.10;;;;;;;15.43;68.06;95310.09;5073279;28;20457;-89
2022/07/13 03:31:05;;;;;;;7.50;3.10;;;;;;;15.53;68.54;95300.25;5073256;28;20445;-90
2022/07/13 03:33:32;;;;;;;3.83;3.03;;;;;;;15.71;67.98;95301.16;5072933;28;21023;-88
2022/07/13 03:35:59;;;;;;;6.27;2.50;;;;;;;15.93;67.13;95307.78;5073529;28;20449;-87
2022/07/13 03:38:26;;;;;;;5.20;2.30;;;;;;;16.31;65.95;95303.94;5073109;28;20959;-88
2022/07/13 03:40:54;;;;;;;2.80;2.23;;;;;;;16.77;62.84;95303.75;5072970;28;20476;-90
2022/07/13 03:43:24;;;;;;;4.07;2.00;;;;;;;17.32;61.25;95309.44;5072777;28;20449;-87
2022/07/13 03:45:51;;;;;;;3.10;2.53;;;;;;;17.76;59.20;95302.13;5073109;28;20487;-89
2022/07/13 03:48:18;;;;;;;3.47;2.50;;;;;;;18.30;57.63;95310.47;5073326;28;20449;-89
2022/07/13 03:50:45;;;;;;;4.07;3.63;;;;;;;18.58;57.73;95303.78;5073669;28;20505;-90
2022/07/13 03:53:12;;;;;;;4.73;2.87;;;;;;;18.83;57.92;95301.13;5073227;28;20456;-87
2022/07/13 03:55:40;;;;;;;6.13;2.57;;;;;;;19.25;56.79;95307.94;5075909;28;20457;-88
2022/07/13 03:58:10;;;;;;;2.80;2.60;;;;;;;19.63;55.13;95301.78;5076943;28;20449;-91
2022/07/13 04:00:37;;;;;;;3.30;2.20;;;;;;;19.94;53.04;95314.22;5076793;28;20450;-88
2022/07/13 04:03:04;;;;;;;3.57;2.80;;;;;;;20.21;51.55;95311.03;5076363;28;20965;-89
2022/07/13 04:05:31;;;;;;;4.83;3.30;;;;;;;20.55;50.13;95313.28;5076756;28;20478;-89
2022/07/13 04:07:58;;;;;;;13.20;6.73;;;;;;;20.84;49.49;95315.16;5077008;28;20458;-87
2022/07/13 04:10:25;;;;;;;8.10;6.07;;;;;;;21.10;48.85;95319.19;5076277;28;20957;-87
2022/07/13 04:12:52;;;;;;;3.77;3.43;;;;;;;21.18;50.14;95314.63;5076814;28;20454;-88
2022/07/13 04:15:20;;;;;;;6.30;2.57;;;;;;;21.21;49.98;95316.09;5076710;28;20446;-88
2022/07/13 04:17:47;;;;;;;7.47;3.73;;;;;;;21.20;51.22;95317.09;5076638;28;20470;-89
2022/07/13 04:20:14;;;;;;;7.23;4.17;;;;;;;21.21;51.30;95324.94;5076547;28;20511;-87
2022/07/13 04:22:41;;;;;;;6.10;4.37;;;;;;;20.74;51.96;95330.59;5076119;28;20967;-88
2022/07/13 04:25:09;;;;;;;7.60;5.60;;;;;;;20.62;52.17;95332.06;5076327;28;20455;-89
2022/07/13 04:27:36;;;;;;;6.97;6.27;;;;;;;20.44;52.91;95328.88;5076516;28;20453;-90
2022/07/13 04:30:03;;;;;;;7.83;5.90;;;;;;;20.70;52.50;95329.28;5076338;28;20793;-88
2022/07/13 04:32:32;;;;;;;13.87;6.10;;;;;;;20.78;52.13;95339.06;5076371;28;20541;-88
2022/07/13 04:34:59;;;;;;;6.80;6.10;;;;;;;20.91;51.73;95332.09;5075886;28;20452;-82
2022/07/13 04:37:26;;;;;;;7.67;5.83;;;;;;;21.11;50.91;95335.06;5076273;28;20453;-88
2022/07/13 04:39:53;;;;;;;8.90;6.47;;;;;;;21.03;51.28;95325.28;5076007;28;20476;-89
2022/07/13 04:42:20;;;;;;;6.93;5.07;;;;;;;21.26;50.86;95335.06;5076088;28;20453;-89
2022/07/13 04:44:47;;;;;;;5.67;5.10;;;;;;;21.41;51.26;95330.56;5075771;28;20462;-88
2022/07/13 04:47:14;;;;;;;6.63;5.80;;;;;;;21.55;49.57;95335.03;5075631;28;20851;-89
2022/07/13 04:49:42;;;;;;;8.87;5.70;;;;;;;21.86;49.12;95333.97;5075732;28;20451;-89
2022/07/13 04:52:09;;;;;;;9.43;5.47;;;;;;;22.09;48.42;95329.31;5075935;28;21051;-88
2022/07/13 04:54:36;;;;;;;5.73;4.80;;;;;;;22.28;47.79;95330.53;5075867;28;20525;-88
2022/07/13 04:57:03;;;;;;;6.00;5.47;;;;;;;22.45;46.89;95333.75;5075757;28;20442;-89
2022/07/13 04:59:30;;;;;;;6.00;5.40;;;;;;;22.26;47.90;95329.88;5072707;28;20464;-90
2022/07/13 05:01:57;;;;;;;21.20;6.40;;;;;;;22.15;47.79;95336.56;5074604;28;20458;-87
2022/07/13 05:04:25;;;;;;;13.33;6.30;;;;;;;22.13;48.63;95335.94;5076269;28;20461;-90
2022/07/13 05:06:53;;;;;;;8.10;5.63;;;;;;;22.33;48.64;95335.31;5075034;28;20893;-90
2022/07/13 05:09:21;;;;;;;9.57;6.20;;;;;;;22.39;49.02;95331.88;5076065;28;20447;-89
2022/07/13 05:11:48;;;;;;;13.17;6.03;;;;;;;22.72;48.48;95332.13;5075957;28;20452;-89
2022/07/13 05:14:15;;;;;;;9.80;5.33;;;;;;;22.93;47.85;95328.63;5075856;28;20452;-91
2022/07/13 05:16:42;;;;;;;8.80;5.50;;;;;;;23.15;47.56;95331.03;5075945;28;20467;-89
2022/07/13 05:19:09;;;;;;;7.10;5.30;;;;;;;23.50;46.99;95333.69;5075591;28;20802;-89
2022/07/13 05:21:36;;;;;;;10.20;4.40;;;;;;;23.85;46.26;95326.44;5075583;28;20456;-88
2022/07/13 05:24:05;;;;;;;7.57;4.70;;;;;;;24.00;44.65;95324.44;5075068;28;20492;-90
2022/07/13 05:26:32;;;;;;;6.97;4.83;;;;;;;24.37;44.61;95328.47;5075062;28;20477;-88
2022/07/13 05:28:59;;;;;;;5.70;4.07;;;;;;;24.74;43.32;95336.13;5075882;28;20920;-89
2022/07/13 05:31:26;;;;;;;6.80;4.73;;;;;;;25.10;43.08;95338.38;5055179;22;21081;-90
2022/07/13 05:33:52;;;;;;;12.30;4.63;;;;;;;25.37;42.68;95344.53;5015472;28;20444;-90
2022/07/13 05:36:19;;;;;;;6.97;4.40;;;;;;;25.51;41.71;95344.31;4997397;28;20448;-89
2022/07/13 05:38:46;;;;;;;7.07;4.50;;;;;;;25.64;41.64;95344.25;5015565;28;20493;-91
2022/07/13 05:41:14;;;;;;;4.43;4.03;;;;;;;25.76;41.13;95340.94;5015434;28;20454;-88
2022/07/13 05:43:41;;;;;;;9.20;5.23;;;;;;;25.89;40.88;95339.00;5015090;28;20485;-88
2022/07/13 05:46:08;;;;;;;6.00;4.80;;;;;;;26.12;39.98;95343.03;5015453;28;20482;-86
2022/07/13 05:48:36;;;;;;;7.70;4.27;;;;;;;26.23;39.84;95336.97;4997088;28;20447;-88
2022/07/13 05:51:03;;;;;;;10.93;3.80;;;;;;;25.89;39.48;95336.31;5014881;28;20459;-88
2022/07/13 05:53:30;;;;;;;7.40;4.87;;;;;;;25.74;41.38;95332.28;4997025;28;20453;-89
2022/07/13 05:55:57;;;;;;;4.93;4.17;;;;;;;25.60;40.69;95332.28;5015055;28;20461;-88
2022/07/13 05:58:25;;;;;;;7.30;3.40;;;;;;;25.35;40.52;95339.38;5015435;28;20810;-87
2022/07/13 06:00:52;;;;;;;6.50;4.60;;;;;;;25.59;40.40;95343.22;5015367;28;20801;-91
2022/07/13 06:03:19;;;;;;;6.07;3.93;;;;;;;25.66;39.94;95327.06;5015193;28;20452;-92
2022/07/13 06:05:46;;;;;;;7.43;3.60;;;;;;;25.80;39.87;95339.47;5014802;28;20459;-87
2022/07/13 06:08:12;;;;;;;9.97;5.13;;;;;;;26.12;38.29;95326.91;5014805;28;20501;-90
2022/07/13 06:10:39;;;;;;;4.43;3.37;;;;;;;25.73;38.49;95317.16;5014496;28;20466;-89
2022/07/13 06:13:06;;;;;;;7.50;3.67;;;;;;;25.79;39.09;95317.13;5014625;28;20457;-89
2022/07/13 06:15:34;;;;;;;6.03;3.33;;;;;;;25.71;39.12;95316.53;5014647;28;20457;-88
2022/07/13 06:18:01;;;;;;;3.73;2.97;;;;;;;25.35;38.93;95317.06;5014429;28;20449;-89
2022/07/13 06:20:28;;;;;;;5.23;2.87;;;;;;;25.22;39.20;95310.69;5014885;28;20449;-89
2022/07/13 06:23:11;;;;;;;6.40;2.63;;;;;;;25.09;39.20;95310.69;5014790;28;20940;-89
2022/07/13 06:25:38;;;;;;;4.13;2.27;;;;;;;25.29;38.37;95310.66;5014343;28;20937;-88
2022/07/13 06:28:06;;;;;;;6.40;2.37;;;;;;;25.21;37.84;95303.66;5014590;28;20429;-90
2022/07/13 06:30:35;;;;;;;9.03;2.53;;;;;;;25.39;38.58;95313.72;5014337;28;20488;-89
2022/07/13 06:33:03;;;;;;;4.03;2.20;;;;;;;25.29;38.24;95314.19;5014499;28;20468;-89
2022/07/13 06:35:30;;;;;;;2.43;2.10;;;;;;;25.40;38.04;95311.88;5014375;28;20465;-91
2022/07/13 06:37:58;;;;;;;2.60;2.10;;;;;;;25.42;38.48;95312.47;5014130;28;20461;-89
2022/07/13 06:40:25;;;;;;;3.27;2.40;;;;;;;25.36;36.96;95303.41;5014309;28;20541;-87
2022/07/13 06:42:52;;;;;;;3.50;2.10;;;;;;;25.30;38.01;95301.56;5014485;28;20461;-87
2022/07/13 06:45:21;;;;;;;4.27;2.63;;;;;;;25.26;37.82;95295.78;5014265;28;20809;-88
2022/07/13 06:47:50;;;;;;;3.10;2.10;;;;;;;25.00;38.41;95296.69;5013967;28;20484;-91
2022/07/13 06:50:17;;;;;;;6.67;2.17;;;;;;;25.08;38.96;95292.94;5014352;28;20465;-89
2022/07/13 06:52:44;;;;;;;5.37;2.30;;;;;;;25.31;37.78;95292.47;5014347;28;20458;-89
2022/07/13 06:55:12;;;;;;;4.57;2.30;;;;;;;25.38;37.27;95289.75;5013919;28;20539;-89
2022/07/13 06:57:39;;;;;;;3.37;2.20;;;;;;;25.31;37.07;95287.91;5014247;28;20455;-87
2022/07/13 07:00:08;;;;;;;3.90;2.30;;;;;;;25.14;36.54;95297.47;5014240;28;20452;-90
2022/07/13 07:02:36;;;;;;;5.80;2.80;;;;;;;25.09;37.69;95296.44;5013957;28;20436;-90
2022/07/13 07:05:05;;;;;;;2.47;2.27;;;;;;;25.00;37.33;95295.84;5013755;28;20937;-91
2022/07/13 07:07:32;;;;;;;4.20;2.53;;;;;;;25.14;36.92;95291.25;5013886;28;20995;-89
2022/07/13 07:09:59;;;;;;;4.83;2.13;;;;;;;25.25;36.44;95293.31;5013751;28;20461;-91
2022/07/13 07:12:26;;;;;;;2.10;2.00;;;;;;;25.38;36.63;95292.44;5013929;28;20453;-90
2022/07/13 07:14:53;;;;;;;1.93;1.77;;;;;;;25.67;34.89;95289.25;5013520;28;20449;-88
2022/07/13 07:17:20;;;;;;;3.67;1.80;;;;;;;26.04;35.66;95292.19;5013543;28;20477;-88
2022/07/13 07:19:47;;;;;;;4.23;2.23;;;;;;;26.32;33.96;95289.13;5013796;28;20485;-87
2022/07/13 07:22:16;;;;;;;3.50;2.23;;;;;;;26.22;34.27;95292.25;4994815;28;20525;-92
2022/07/13 07:24:43;;;;;;;5.83;2.00;;;;;;;26.09;33.65;95284.28;5014051;28;20462;-91
2022/07/13 07:27:11;;;;;;;2.40;2.10;;;;;;;25.87;34.43;95291.84;5013554;28;20493;-91
2022/07/13 07:29:39;;;;;;;2.83;1.80;;;;;;;25.94;34.99;95298.84;5013571;28;20466;-90
2022/07/13 07:32:06;;;;;;;4.17;2.53;;;;;;;25.81;34.48;95298.94;5013804;28;20441;-92
2022/07/13 07:34:33;;;;;;;3.07;2.17;;;;;;;25.83;34.67;95306.78;5013623;28;20975;-89
2022/07/13 07:37:00;;;;;;;5.97;2.10;;;;;;;25.85;35.76;95310.06;5014118;28;20444;-86
2022/07/13 07:39:29;;;;;;;2.07;1.87;;;;;;;25.74;34.16;95295.44;5014455;28;20441;-89
2022/07/13 07:41:56;;;;;;;4.20;2.37;;;;;;;25.75;35.10;95302.47;5013649;28;20437;-88
2022/07/13 07:44:23;;;;;;;3.23;2.90;;;;;;;25.91;35.11;95304.66;5013995;28;20457;-91
2022/07/13 07:46:50;;;;;;;2.47;1.70;;;;;;;25.88;33.74;95301.56;5013606;28;20486;-91
2022/07/13 07:49:17;;;;;;;6.10;2.17;;;;;;;25.85;34.94;95299.31;5013915;28;20449;-93
2022/07/13 07:51:45;;;;;;;5.93;1.80;;;;;;;25.68;35.21;95298.16;5013323;28;20456;-92
2022/07/13 07:54:12;;;;;;;5.60;2.70;;;;;;;25.90;34.97;95296.81;5013260;28;20936;-89
2022/07/13 07:56:41;;;;;;;5.13;2.10;;;;;;;25.94;34.46;95293.47;5013768;28;20463;-91
2022/07/13 07:59:08;;;;;;;2.23;1.80;;;;;;;25.69;35.45;95297.09;5013095;28;20450;-92
2022/07/13 08:01:34;;;;;;;8.43;2.27;;;;;;;25.82;34.84;95295.19;5013191;28;20461;-89
2022/07/13 08:04:01;;;;;;;3.03;2.00;;;;;;;25.75;35.02;95289.03;5013962;28;20943;-90
2022/07/13 08:06:28;;;;;;;4.27;2.40;;;;;;;25.82;36.30;95295.19;5013471;28;20883;-91
2022/07/13 08:08:55;;;;;;;2.47;1.73;;;;;;;25.91;35.29;95301.97;5013790;28;20449;-89
2022/07/13 08:11:22;;;;;;;4.07;2.20;;;;;;;25.82;34.78;95297.88;5013469;28;20460;-91
2022/07/13 08:13:51;;;;;;;2.43;1.90;;;;;;;25.80;34.75;95294.59;5013490;28;20453;-89
2022/07/13 08:16:19;;;;;;;2.03;1.70;;;;;;;25.85;35.64;95292.06;5013128;28;20454;-92
2022/07/13 08:18:46;;;;;;;2.13;1.93;;;;;;;26.01;34.84;95284.53;5013287;28;20450;-89
2022/07/13 08:21:14;;;;;;;3.50;2.10;;;;;;;25.81;35.02;95301.63;5013401;28;20477;-89
2022/07/13 08:23:53;;;;;;;5.33;2.03;;;;;;;25.89;33.64;95297.84;5012804;28;20454;-91
2022/07/13 08:26:20;;;;;;;2.10;1.90;;;;;;;25.87;34.61;95298.06;5012868;28;21027;-88
2022/07/13 08:28:48;;;;;;;7.13;2.27;;;;;;;25.64;34.66;95298.53;5012991;28;20685;-89
2022/07/13 08:31:16;;;;;;;4.07;1.70;;;;;;;25.68;34.04;95293.59;5013310;28;20974;-91
2022/07/13 08:39:13;;;;;;;3.90;2.00;;;;;;;25.98;34.27;95293.84;5013220;28;20503;-92
2022/07/13 08:41:40;;;;;;;4.90;2.50;;;;;;;25.99;34.36;95295.50;5014418;28;20457;-93
2022/07/13 08:44:07;;;;;;;3.00;1.83;;;;;;;25.90;34.02;95292.25;5016410;28;20450;-90
2022/07/13 08:46:35;;;;;;;2.97;1.67;;;;;;;25.59;34.92;95290.31;5016846;28;20450;-91
2022/07/13 08:49:03;;;;;;;8.13;1.87;;;;;;;25.71;34.91;95293.16;5016306;28;20450;-88
2022/07/13 08:51:31;;;;;;;4.70;1.90;;;;;;;25.89;34.99;95290.59;5016373;28;20460;-91
2022/07/13 08:53:59;;;;;;;2.67;2.10;;;;;;;26.19;35.71;95284.63;5016122;28;20451;-90
2022/07/13 08:56:26;;;;;;;10.17;2.93;;;;;;;26.31;35.19;95287.44;5016131;28;20465;-89
2022/07/13 08:58:53;;;;;;;6.27;1.80;;;;;;;26.14;34.62;95293.34;5015859;28;20469;-90
2022/07/13 09:01:20;;;;;;;4.10;2.00;;;;;;;25.85;35.21;95293.94;5016035;28;20469;-90
2022/07/13 09:03:49;;;;;;;9.80;1.90;;;;;;;25.75;35.47;95291.72;5016426;28;20465;-91
2022/07/13 09:06:47;;;;;;;3.87;2.00;;;;;;;26.02;34.45;95284.34;4997533;28;20431;-90
2022/07/13 09:09:35;;;;;;;6.40;1.83;;;;;;;26.27;34.81;95281.66;4974700;28;20492;-89
2022/07/13 09:12:16;;;;;;;2.03;1.73;;;;;;;26.24;34.59;95284.81;4974629;28;21014;-89
2022/07/13 09:14:45;;;;;;;4.00;2.20;;;;;;;25.94;35.76;95288.09;4975072;28;20542;-89
2022/07/13 09:17:31;;;;;;;6.17;2.30;;;;;;;25.73;36.55;95291.09;4974894;28;20486;-90
2022/07/13 09:20:04;;;;;;;2.13;1.70;;;;;;;25.38;35.76;95289.75;4974507;28;20967;-90
2022/07/13 09:22:31;;;;;;;2.10;1.70;;;;;;;25.45;35.74;95283.34;4975026;28;20457;-91
2022/07/13 09:25:00;;;;;;;4.80;2.33;;;;;;;25.58;35.96;95277.91;4974615;28;20455;-90
2022/07/13 09:27:27;;;;;;;3.40;1.90;;;;;;;25.99;35.48;95276.69;4974694;28;20483;-90
2022/07/13 09:29:54;;;;;;;4.43;1.83;;;;;;;25.99;34.89;95267.78;4974426;28;20534;-91
2022/07/13 09:32:21;;;;;;;3.27;2.00;;;;;;;25.83;35.44;95280.72;4974949;28;20456;-91
2022/07/13 09:34:54;;;;;;;6.80;1.90;;;;;;;25.58;35.45;95272.53;4974613;28;20462;-91
2022/07/13 09:37:27;;;;;;;3.20;1.80;;;;;;;25.00;35.64;95269.00;4974418;28;20469;-91
2022/07/13 09:40:06;;;;;;;2.43;1.90;;;;;;;25.31;36.13;95277.16;4974151;28;20447;-93
2022/07/13 09:42:34;;;;;;;3.40;1.90;;;;;;;25.60;36.85;95275.00;4974501;28;20458;-92
2022/07/13 09:47:49;;;;;;;2.93;1.97;;;;;;;25.87;34.79;95275.72;5015396;28;20470;-92
2022/07/13 09:50:18;;;;;;;2.90;1.93;;;;;;;25.98;35.69;95266.97;5015194;28;20544;-89
2022/07/13 09:52:48;;;;;;;4.33;2.03;;;;;;;25.78;35.02;95274.34;5019347;28;20458;-90
2022/07/13 09:55:20;;;;;;;2.23;2.03;;;;;;;25.74;36.78;95271.25;5015428;28;20451;-88
2022/07/13 09:57:49;;;;;;;3.80;2.00;;;;;;;25.78;35.63;95275.16;5015334;28;20454;-90
2022/07/13 10:00:18;;;;;;;6.83;2.17;;;;;;;25.89;35.66;95269.09;5014792;28;20458;-87
2022/07/13 10:02:48;;;;;;;8.90;1.90;;;;;;;25.97;36.11;95269.88;5015076;28;20461;-89
2022/07/13 10:05:16;;;;;;;5.40;1.90;;;;;;;25.98;36.38;95260.75;5014853;28;20453;-93
2022/07/13 10:07:44;;;;;;;2.10;1.90;;;;;;;25.81;35.16;95258.59;5015000;28;20483;-94
2022/07/13 10:10:15;;;;;;;2.10;1.90;;;;;;;25.81;35.16;95258.59;4997066;28;20446;-93
2022/07/13 10:12:42;;;;;;;2.00;1.80;;;;;;;25.88;36.43;95256.69;5014685;28;20530;-90
2022/07/13 10:15:11;;;;;;;1.97;1.70;;;;;;;26.04;34.99;95257.22;5015103;28;20988;-90
2022/07/13 10:17:39;;;;;;;1.83;1.73;;;;;;;25.90;36.81;95251.91;5014829;28;20471;-91
2022/07/13 10:20:11;;;;;;;3.73;1.77;;;;;;;26.01;35.72;95253.06;5014793;28;20458;-90
2022/07/13 10:22:41;;;;;;;6.30;2.20;;;;;;;26.03;35.05;95247.50;5015436;28;20533;-91
2022/07/13 10:25:09;;;;;;;7.33;2.13;;;;;;;26.05;36.07;95248.94;5015722;28;20550;-92
2022/07/13 10:27:41;;;;;;;4.37;1.90;;;;;;;26.06;35.69;95241.69;5015965;28;20834;-91
2022/07/13 10:30:09;;;;;;;5.80;2.00;;;;;;;26.10;35.48;95237.53;5014501;28;20490;-91
2022/07/13 10:32:38;;;;;;;3.70;1.80;;;;;;;26.01;35.06;95238.81;4981668;28;20632;-94
2022/07/13 10:35:09;;;;;;;1.83;1.60;;;;;;;25.82;36.91;95238.72;5000933;28;20451;-86
2022/07/13 10:38:22;;;;;;;1.80;1.70;;;;;;;25.37;35.68;95229.00;5015061;28;20482;-87
2022/07/13 10:40:49;;;;;;;2.40;1.47;;;;;;;24.94;36.39;95226.84;4916738;29;20457;-92
2022/07/13 10:43:18;;;;;;;2.17;1.80;;;;;;;24.93;36.75;95226.03;4916219;29;20444;-89
2022/07/13 10:45:51;;;;;;;6.00;1.80;;;;;;;24.70;36.84;95226.47;4916470;29;20457;-87
2022/07/13 10:48:47;;;;;;;6.77;1.90;;;;;;;24.82;36.54;95232.03;4916784;29;20480;-91
2022/07/13 10:51:19;;;;;;;4.80;1.57;;;;;;;25.04;36.77;95227.25;4916184;29;20531;-88
2022/07/13 10:54:06;;;;;;;4.40;1.90;;;;;;;25.39;35.91;95221.53;4915872;29;21069;-87
2022/07/13 10:56:33;;;;;;;2.23;1.87;;;;;;;25.59;35.08;95222.28;4914726;29;20439;-87
2022/07/13 10:59:02;;;;;;;2.90;1.60;;;;;;;25.73;34.81;95228.44;4915003;29;20458;-88
2022/07/13 11:01:48;;;;;;;7.17;1.50;;;;;;;25.70;34.83;95218.94;4914644;29;20970;-88
2022/07/13 11:04:17;;;;;;;2.23;1.47;;;;;;;25.75;33.90;95213.75;4913966;29;20452;-87
2022/07/13 11:07:08;;;;;;;1.20;1.10;;;;;;;25.62;33.21;95208.41;4914471;29;20454;-88
2022/07/13 11:09:35;;;;;;;2.07;1.70;;;;;;;25.76;35.34;95211.91;4914509;29;20462;-87
2022/07/13 11:12:03;;;;;;;6.70;1.77;;;;;;;25.72;35.92;95208.78;4914738;29;20447;-88
2022/07/13 11:14:50;;;;;;;1.60;1.50;;;;;;;25.46;34.06;95212.44;4937992;28;20445;-88
2022/07/13 11:17:19;;;;;;;5.53;1.83;;;;;;;25.45;34.86;95212.66;4978758;28;20463;-87
2022/07/13 11:20:10;;;;;;;2.73;1.90;;;;;;;25.48;34.18;95213.03;5013061;28;20453;-87
2022/07/13 11:25:42;;;;;;;3.77;2.10;;;;;;;25.49;34.62;95208.50;5014158;28;20412;-86
2022/07/13 11:28:21;;;;;;;3.30;1.87;;;;;;;25.43;35.76;95209.31;5013907;28;20486;-81
2022/07/13 11:30:54;;;;;;;2.60;1.70;;;;;;;25.39;36.23;95208.94;5013757;28;20830;-84
2022/07/13 11:33:21;;;;;;;3.23;1.90;;;;;;;25.19;35.18;95208.22;5013863;28;20620;-85
2022/07/13 11:35:49;;;;;;;3.37;2.60;;;;;;;25.23;35.78;95212.94;5013852;28;20426;-82
2022/07/13 11:38:19;;;;;;;3.27;2.23;;;;;;;25.31;35.43;95201.13;5013685;28;20516;-84
2022/07/13 11:40:46;;;;;;;1.90;1.80;;;;;;;25.51;35.73;95203.72;5013833;28;20827;-84
2022/07/13 11:43:13;;;;;;;7.20;2.00;;;;;;;25.56;35.61;95198.53;5013490;28;20972;-85
2022/07/13 11:45:42;;;;;;;3.30;1.90;;;;;;;25.59;36.42;95198.09;5013688;28;20433;-85
2022/07/13 11:48:13;;;;;;;2.47;2.00;;;;;;;25.59;38.62;95192.72;5013378;28;20478;-84
2022/07/13 11:50:42;;;;;;;1.70;1.60;;;;;;;25.73;37.50;95188.94;5018692;28;20533;-83
2022/07/13 11:53:10;;;;;;;4.00;1.70;;;;;;;25.57;35.15;95195.63;5033035;28;20433;-86